Time;durP1;ratioP1;P1;durP2;ratioP2;P2;SDS_P1;SDS_P2;PMS_P1;PMS_P2;Temp;Humidity;BMP_temperature;BMP_pressure;BME280_temperature;BME280_humidity;BME280_pressure;Samples;Min_cycle;Max_cycle;Signal;HPM_P1;HPM_P2
2021/04/27 04:45:51;;;;;;;7.97;2.20;;;;;;;;;;6280121;22;883520;-77
2021/04/27 04:48:16;;;;;;;3.67;2.15;;;;;;;;;;6285411;22;20017;-75
2021/04/27 04:50:42;;;;;;;4.13;1.85;;;;;;;;;;6313169;22;20085;-77
2021/04/27 04:53:08;;;;;;;7.93;2.88;;;;;;;;;;6313212;22;20014;-76
2021/04/27 04:55:35;;;;;;;4.28;2.10;;;;;;;;;;6307069;22;20023;-78
2021/04/27 04:58:00;;;;;;;7.40;2.20;;;;;;;;;;6284404;22;20106;-76
2021/04/27 05:00:26;;;;;;;7.47;2.97;;;;;;;;;;6255308;22;20038;-75
2021/04/27 05:02:52;;;;;;;6.40;2.35;;;;;;;;;;6283622;22;19999;-75
2021/04/27 05:05:18;;;;;;;4.18;2.13;;;;;;;;;;6283225;22;20082;-75
2021/04/27 05:07:46;;;;;;;6.13;2.40;;;;;;;;;;6283870;22;20010;-76
2021/04/27 05:10:13;;;;;;;4.80;1.80;;;;;;;;;;6283732;22;20007;-76
2021/04/27 05:12:39;;;;;;;4.28;2.35;;;;;;;;;;6283444;22;20003;-76
2021/04/27 05:15:05;;;;;;;4.47;1.98;;;;;;;;;;6256291;22;20007;-76
2021/04/27 05:17:31;;;;;;;5.10;2.00;;;;;;;;;;6283535;22;20029;-75
2021/04/27 05:19:58;;;;;;;4.85;2.00;;;;;;;;;;6283864;22;20007;-77
2021/04/27 05:22:24;;;;;;;5.63;2.92;;;;;;;;;;6283507;22;20033;-75
2021/04/27 05:24:49;;;;;;;3.95;1.95;;;;;;;;;;6283665;22;20334;-75
2021/04/27 05:27:15;;;;;;;5.20;2.58;;;;;;;;;;6280874;22;20046;-77
2021/04/27 05:29:41;;;;;;;4.28;2.22;;;;;;;;;;6276946;22;20011;-77
2021/04/27 05:32:06;;;;;;;3.65;1.85;;;;;;;;;;6277113;22;20007;-76
2021/04/27 05:34:32;;;;;;;5.45;2.35;;;;;;;;;;6276367;22;20026;-76
2021/04/27 05:36:58;;;;;;;5.47;3.45;;;;;;;;;;6276755;22;20083;-76
2021/04/27 05:39:24;;;;;;;7.68;2.40;;;;;;;;;;6277655;22;20067;-77
2021/04/27 05:41:49;;;;;;;4.30;2.08;;;;;;;;;;6276573;22;20000;-77
2021/04/27 05:44:15;;;;;;;5.55;2.33;;;;;;;;;;6250029;22;20326;-77
2021/04/27 05:46:41;;;;;;;5.45;2.53;;;;;;;;;;6276383;22;20014;-76
2021/04/27 05:51:24;;;;;;;6.43;2.20;;;;;;;;;;5106095;27;20400;-77
2021/04/27 05:53:50;;;;;;;5.15;1.85;;;;;;;;;;5116553;28;20825;-76
2021/04/27 05:56:15;;;;;;;6.18;2.22;;;;;;;;;;5111798;28;20076;-78
2021/04/27 05:58:41;;;;;;;5.18;2.58;;;;;;;;;;5104436;28;20515;-77
2021/04/27 06:01:07;;;;;;;4.90;2.08;;;;;;;;;;5099239;28;20020;-77
2021/04/27 06:03:33;;;;;;;4.72;2.05;;;;;;;;;;5110890;28;20016;-78
2021/04/27 06:05:58;;;;;;;6.18;2.58;;;;;;;;;;5099677;28;20046;-76
2021/04/27 06:08:24;;;;;;;4.60;1.88;;;;;;;;;;5105449;28;20024;-77
2021/04/27 06:10:50;;;;;;;5.38;1.95;;;;;;;;;;5104734;27;20011;-78
2021/04/27 06:13:15;;;;;;;6.32;2.17;;;;;;;;;;5102074;28;20036;-77
2021/04/27 06:15:41;;;;;;;4.47;2.38;;;;;;;;;;5114274;28;20098;-75
2021/04/27 06:18:07;;;;;;;5.30;2.53;;;;;;;;;;5114324;28;20028;-77
2021/04/27 06:20:32;;;;;;;5.80;2.20;;;;;;;;;;5101598;28;20602;-78
2021/04/27 06:22:58;;;;;;;5.70;2.65;;;;;;;;;;5101302;28;20456;-77
2021/04/27 06:25:23;;;;;;;9.02;2.25;;;;;;;;;;5103131;28;20050;-77
2021/04/27 06:27:49;;;;;;;5.28;2.42;;;;;;;;;;5101054;28;20099;-77
2021/04/27 06:30:15;;;;;;;6.75;2.35;;;;;;;;;;5099810;28;20100;-77
2021/04/27 06:32:41;;;;;;;6.05;2.65;;;;;;;;;;5103682;28;20441;-79
2021/04/27 06:35:07;;;;;;;6.38;2.47;;;;;;;;;;5095245;28;20097;-77
2021/04/27 06:37:33;;;;;;;11.70;3.25;;;;;;;;;;5097631;28;20043;-76
2021/04/27 06:39:58;;;;;;;5.60;2.67;;;;;;;;;;5101264;28;20032;-78
2021/04/27 06:42:24;;;;;;;4.35;2.72;;;;;;;;;;5107433;28;20099;-78
2021/04/27 06:44:50;;;;;;;7.13;2.85;;;;;;;;;;5101349;28;20027;-77
2021/04/27 06:47:16;;;;;;;4.68;2.35;;;;;;;;;;5092155;28;20036;-77
2021/04/27 06:49:41;;;;;;;4.63;2.53;;;;;;;;;;5093713;28;20028;-78
2021/04/27 06:52:08;;;;;;;7.32;2.63;;;;;;;;;;5098093;28;20028;-78
2021/04/27 06:54:34;;;;;;;5.22;2.30;;;;;;;;;;5099611;28;20372;-77
2021/04/27 06:57:00;;;;;;;9.43;2.70;;;;;;;;;;5095375;28;20048;-77
2021/04/27 06:59:31;;;;;;;4.15;2.10;;;;;;;;;;5095580;28;20514;-78
2021/04/27 07:01:57;;;;;;;5.60;2.63;;;;;;;;;;5096133;28;20043;-77
2021/04/27 07:04:23;;;;;;;5.32;2.53;;;;;;;;;;5089377;28;20031;-78
2021/04/27 07:06:49;;;;;;;6.63;2.28;;;;;;;;;;5083042;28;20104;-77
2021/04/27 07:09:14;;;;;;;5.43;2.05;;;;;;;;;;5080083;28;20025;-79
2021/04/27 07:11:40;;;;;;;4.00;2.40;;;;;;;;;;5088031;28;20102;-78
2021/04/27 07:14:06;;;;;;;7.25;2.42;;;;;;;;;;5109910;28;20012;-78
2021/04/27 07:16:31;;;;;;;6.20;2.83;;;;;;;;;;5091457;28;20052;-76
2021/04/27 07:18:57;;;;;;;6.80;2.72;;;;;;;;;;5086243;28;20047;-78
2021/04/27 07:21:23;;;;;;;6.00;2.67;;;;;;;;;;5086070;28;20131;-78
2021/04/27 07:23:49;;;;;;;5.50;2.50;;;;;;;;;;5085747;28;20200;-78
2021/04/27 07:26:15;;;;;;;8.60;2.42;;;;;;;;;;5089922;28;20044;-79
2021/04/27 07:28:40;;;;;;;4.38;2.33;;;;;;;;;;5087301;28;20129;-77
2021/04/27 07:31:06;;;;;;;6.47;2.22;;;;;;;;;;5082158;28;20024;-77
2021/04/27 07:33:32;;;;;;;4.50;2.30;;;;;;;;;;5084143;28;20075;-77
2021/04/27 07:35:58;;;;;;;4.55;2.00;;;;;;;;;;5083662;28;20033;-77
2021/04/27 07:38:23;;;;;;;5.53;2.35;;;;;;;;;;5083574;28;20547;-77
2021/04/27 07:40:49;;;;;;;6.15;2.75;;;;;;;;;;5083873;28;20528;-77
2021/04/27 07:43:15;;;;;;;4.20;2.53;;;;;;;;;;5085980;28;20617;-77
2021/04/27 07:45:41;;;;;;;6.45;2.17;;;;;;;;;;5088505;28;20023;-77
2021/04/27 07:48:07;;;;;;;4.35;2.28;;;;;;;;;;5090080;28;20054;-78
2021/04/27 07:50:34;;;;;;;9.55;2.88;;;;;;;;;;5103783;28;20027;-78
2021/04/27 07:52:59;;;;;;;4.47;2.42;;;;;;;;;;5106545;28;20023;-79
2021/04/27 07:55:25;;;;;;;5.00;2.38;;;;;;;;;;5102546;28;20338;-78
2021/04/27 07:57:51;;;;;;;4.68;2.40;;;;;;;;;;5103777;28;20016;-77
2021/04/27 08:00:18;;;;;;;7.78;2.92;;;;;;;;;;5094736;28;20028;-77
2021/04/27 08:02:44;;;;;;;4.13;2.47;;;;;;;;;;5089628;28;20023;-79
2021/04/27 08:05:10;;;;;;;6.07;2.45;;;;;;;;;;5101334;28;20028;-78
2021/04/27 08:07:36;;;;;;;4.70;2.63;;;;;;;;;;5083475;28;20107;-78
2021/04/27 08:12:21;;;;;;;6.18;3.00;;;;;;;;;;5113329;27;20424;-78
2021/04/27 08:14:46;;;;;;;7.40;3.03;;;;;;;;;;5112178;27;20107;-78
2021/04/27 08:17:12;;;;;;;5.35;2.85;;;;;;;;;;5101443;28;20024;-80
2021/04/27 08:19:38;;;;;;;5.32;2.88;;;;;;;;;;5097841;28;20067;-78
2021/04/27 08:22:05;;;;;;;6.65;2.80;;;;;;;;;;5097673;28;20031;-77
2021/04/27 08:24:31;;;;;;;5.88;2.88;;;;;;;;;;5095567;28;20020;-78
2021/04/27 08:26:57;;;;;;;4.60;2.70;;;;;;;;;;5097501;28;20108;-79
2021/04/27 08:29:22;;;;;;;4.25;2.42;;;;;;;;;;5101309;28;20023;-79
2021/04/27 08:31:48;;;;;;;6.20;2.60;;;;;;;;;;5110439;27;20382;-79
2021/04/27 08:34:14;;;;;;;6.13;3.03;;;;;;;;;;5106073;28;20043;-79
2021/04/27 08:36:39;;;;;;;6.38;2.75;;;;;;;;;;5107269;28;20110;-79
2021/04/27 08:39:05;;;;;;;5.65;3.10;;;;;;;;;;5098206;28;20095;-78
2021/04/27 08:41:31;;;;;;;6.15;3.35;;;;;;;;;;5096182;28;20034;-79
2021/04/27 08:43:57;;;;;;;5.25;2.92;;;;;;;;;;5097632;28;20024;-79
2021/04/27 08:46:23;;;;;;;9.10;3.00;;;;;;;;;;5094202;28;20019;-79
2021/04/27 08:48:49;;;;;;;7.68;2.80;;;;;;;;;;5104900;28;20028;-78
2021/04/27 08:51:15;;;;;;;8.07;2.60;;;;;;;;;;5095292;28;20016;-81
2021/04/27 08:53:41;;;;;;;5.85;2.80;;;;;;;;;;5113185;28;20042;-78
2021/04/27 08:56:07;;;;;;;5.75;3.30;;;;;;;;;;5121074;27;20468;-78
2021/04/27 08:58:33;;;;;;;5.95;3.03;;;;;;;;;;5117462;28;20020;-79
2021/04/27 09:00:58;;;;;;;6.35;3.13;;;;;;;;;;5117248;28;20016;-78
2021/04/27 09:03:24;;;;;;;6.28;2.90;;;;;;;;;;5112993;28;20024;-75
2021/04/27 09:05:50;;;;;;;4.65;2.83;;;;;;;;;;5118062;28;20106;-79
2021/04/27 09:08:15;;;;;;;11.35;3.65;;;;;;;;;;5120631;28;20031;-77
2021/04/27 09:10:43;;;;;;;6.95;3.40;;;;;;;;;;5117972;28;20021;-78
2021/04/27 09:13:12;;;;;;;13.68;4.10;;;;;;;;;;5125645;27;20024;-78
2021/04/27 09:15:48;;;;;;;6.30;3.25;;;;;;;;;;5119578;28;20025;-80
2021/04/27 09:18:23;;;;;;;6.07;3.17;;;;;;;;;;5123819;27;20100;-79
2021/04/27 09:20:50;;;;;;;5.93;3.47;;;;;;;;;;5111383;28;20150;-78
2021/04/27 09:23:15;;;;;;;6.22;3.90;;;;;;;;;;5097981;27;20063;-77
2021/04/27 09:25:41;;;;;;;5.93;3.05;;;;;;;;;;5099679;28;20439;-78
2021/04/27 09:28:07;;;;;;;6.97;3.75;;;;;;;;;;5094290;28;20103;-79
2021/04/27 09:30:32;;;;;;;10.00;4.32;;;;;;;;;;5083585;28;20100;-78
2021/04/27 09:33:04;;;;;;;7.85;3.60;;;;;;;;;;5093164;28;20023;-79
2021/04/27 09:35:44;;;;;;;9.60;3.35;;;;;;;;;;5098779;28;20012;-78
2021/04/27 09:38:20;;;;;;;6.18;3.50;;;;;;;;;;5107655;28;20026;-79
2021/04/27 09:41:05;;;;;;;6.90;3.67;;;;;;;;;;5094176;28;20024;-79
2021/04/27 09:43:33;;;;;;;7.70;3.42;;;;;;;;;;5103693;28;20058;-78
2021/04/27 09:46:00;;;;;;;6.10;3.40;;;;;;;;;;5086473;28;20044;-77
2021/04/27 09:48:28;;;;;;;7.25;3.30;;;;;;;;;;5082218;28;20051;-78
2021/04/27 09:50:54;;;;;;;5.38;3.47;;;;;;;;;;5089238;28;20558;-80
2021/04/27 09:53:38;;;;;;;8.93;4.45;;;;;;;;;;5089550;28;20099;-79
2021/04/27 09:56:04;;;;;;;10.77;3.90;;;;;;;;;;5081721;28;20108;-78
2021/04/27 09:58:30;;;;;;;11.40;4.72;;;;;;;;;;5084302;28;20506;-80
2021/04/27 10:00:57;;;;;;;6.35;3.30;;;;;;;;;;5089562;28;20058;-79
2021/04/27 10:03:23;;;;;;;8.93;3.65;;;;;;;;;;5091836;28;20426;-80
2021/04/27 10:05:49;;;;;;;6.97;3.78;;;;;;;;;;5092062;28;20020;-80
2021/04/27 10:08:15;;;;;;;9.15;4.15;;;;;;;;;;5107235;28;20031;-78
2021/04/27 10:10:41;;;;;;;9.50;4.25;;;;;;;;;;5092141;28;20051;-78
2021/04/27 10:13:11;;;;;;;6.18;4.22;;;;;;;;;;5082654;28;20060;-79
2021/04/27 10:15:37;;;;;;;7.60;4.05;;;;;;;;;;5084116;28;20020;-78
2021/04/27 10:18:07;;;;;;;9.10;4.78;;;;;;;;;;5089362;28;20376;-78
2021/04/27 10:20:33;;;;;;;10.88;4.20;;;;;;;;;;5087457;28;20027;-78
2021/04/27 10:22:59;;;;;;;13.00;4.30;;;;;;;;;;5081568;28;20016;-79
2021/04/27 10:25:26;;;;;;;7.32;4.28;;;;;;;;;;5082277;28;20037;-78
2021/04/27 10:27:56;;;;;;;7.03;4.55;;;;;;;;;;5086418;28;20051;-78
2021/04/27 10:30:22;;;;;;;10.40;4.65;;;;;;;;;;5101065;28;20040;-78
2021/04/27 10:33:00;;;;;;;9.27;3.90;;;;;;;;;;5091255;28;20020;-78
2021/04/27 10:35:26;;;;;;;8.30;4.45;;;;;;;;;;5099318;28;20055;-79
2021/04/27 10:38:03;;;;;;;7.25;4.25;;;;;;;;;;5094073;28;20097;-78
2021/04/27 10:40:43;;;;;;;9.45;3.95;;;;;;;;;;5102730;28;20020;-79
2021/04/27 10:43:27;;;;;;;10.13;4.65;;;;;;;;;;5104692;28;20024;-78
2021/04/27 10:45:57;;;;;;;8.15;4.32;;;;;;;;;;5098427;28;20368;-78
2021/04/27 10:48:27;;;;;;;10.95;4.57;;;;;;;;;;5101961;28;20024;-79
2021/04/27 10:50:53;;;;;;;6.78;3.88;;;;;;;;;;5088079;28;20020;-78
2021/04/27 10:53:35;;;;;;;6.55;3.63;;;;;;;;;;5085068;28;20480;-79
2021/04/27 10:56:02;;;;;;;4.97;3.40;;;;;;;;;;5079692;28;20042;-79
2021/04/27 10:58:55;;;;;;;9.38;4.10;;;;;;;;;;5085259;28;20030;-79
2021/04/27 11:01:22;;;;;;;7.38;4.45;;;;;;;;;;5086021;28;20028;-78
2021/04/27 11:03:48;;;;;;;7.63;4.63;;;;;;;;;;5095387;22;20036;-81
2021/04/27 11:06:15;;;;;;;6.10;4.15;;;;;;;;;;5077389;28;21420;-81
2021/04/27 11:08:43;;;;;;;8.32;4.45;;;;;;;;;;5075227;28;20066;-81
2021/04/27 11:11:24;;;;;;;9.27;4.00;;;;;;;;;;5074985;28;20028;-81
2021/04/27 11:13:51;;;;;;;7.70;4.45;;;;;;;;;;5083855;28;20020;-81
2021/04/27 11:16:28;;;;;;;7.63;3.60;;;;;;;;;;5093312;28;20032;-81
2021/04/27 11:19:12;;;;;;;4.35;3.05;;;;;;;;;;5092560;28;20475;-81
2021/04/27 11:21:38;;;;;;;8.13;3.50;;;;;;;;;;5096738;28;20122;-81
2021/04/27 11:24:08;;;;;;;8.68;3.90;;;;;;;;;;5076106;28;20391;-81
2021/04/27 11:26:34;;;;;;;7.93;3.35;;;;;;;;;;5091555;28;20030;-82
2021/04/27 11:29:09;;;;;;;5.93;3.20;;;;;;;;;;5073784;28;20388;-83
2021/04/27 11:31:53;;;;;;;5.00;3.35;;;;;;;;;;5092002;28;20476;-85
2021/04/27 11:34:19;;;;;;;4.55;2.97;;;;;;;;;;5071604;28;20093;-84
2021/04/27 11:36:45;;;;;;;7.50;3.63;;;;;;;;;;5092388;28;20472;-82
2021/04/27 11:39:24;;;;;;;8.00;3.50;;;;;;;;;;5102053;28;20036;-84
2021/04/27 11:41:59;;;;;;;4.55;2.80;;;;;;;;;;5071548;28;20069;-84
2021/04/27 11:44:41;;;;;;;4.63;2.80;;;;;;;;;;5075773;28;20036;-82
2021/04/27 11:47:08;;;;;;;7.38;3.63;;;;;;;;;;5079007;28;20031;-83
2021/04/27 11:49:53;;;;;;;4.57;3.22;;;;;;;;;;5093304;28;20422;-80
2021/04/27 11:52:37;;;;;;;8.75;3.78;;;;;;;;;;5090129;28;20020;-80
2021/04/27 11:55:05;;;;;;;5.47;3.38;;;;;;;;;;5090393;28;20016;-80
2021/04/27 11:57:30;;;;;;;7.90;3.95;;;;;;;;;;5069462;28;20021;-80
2021/04/27 12:00:00;;;;;;;7.25;3.95;;;;;;;;;;5092757;28;20016;-81
2021/04/27 12:02:30;;;;;;;7.28;3.83;;;;;;;;;;5069692;28;20024;-81
2021/04/27 12:04:55;;;;;;;8.75;4.07;;;;;;;;;;5095645;28;20472;-81
2021/04/27 12:07:26;;;;;;;6.18;3.47;;;;;;;;;;5095289;28;20110;-81
2021/04/27 12:09:53;;;;;;;5.35;3.38;;;;;;;;;;5091810;28;20070;-81
2021/04/27 12:12:19;;;;;;;6.82;3.83;;;;;;;;;;5095089;28;20055;-82
2021/04/27 12:14:55;;;;;;;5.85;3.67;;;;;;;;;;5074594;28;20020;-80
2021/04/27 12:17:31;;;;;;;4.85;2.97;;;;;;;;;;5080133;28;20024;-80
2021/04/27 12:20:06;;;;;;;6.13;3.50;;;;;;;;;;5075236;28;20016;-80
2021/04/27 12:22:32;;;;;;;5.95;3.28;;;;;;;;;;5075082;28;20028;-80
2021/04/27 12:24:57;;;;;;;10.60;3.88;;;;;;;;;;5074647;28;20020;-80
2021/04/27 12:27:24;;;;;;;6.28;3.15;;;;;;;;;;5066936;28;20119;-79
2021/04/27 12:30:04;;;;;;;10.95;3.78;;;;;;;;;;5093204;28;20042;-79
2021/04/27 12:32:32;;;;;;;6.30;3.90;;;;;;;;;;5073129;28;20028;-79
2021/04/27 12:35:03;;;;;;;5.03;3.25;;;;;;;;;;5087226;28;20024;-79
2021/04/27 12:37:30;;;;;;;5.28;3.72;;;;;;;;;;5072014;28;20086;-80
2021/04/27 12:39:57;;;;;;;8.63;3.80;;;;;;;;;;5092689;28;20016;-79
2021/04/27 12:42:30;;;;;;;7.68;5.28;;;;;;;;;;5092657;28;20051;-80
2021/04/27 12:45:03;;;;;;;10.05;4.68;;;;;;;;;;5092757;28;20020;-80
2021/04/27 12:47:33;;;;;;;9.32;4.40;;;;;;;;;;5092404;28;20036;-82
2021/04/27 12:50:05;;;;;;;13.00;4.20;;;;;;;;;;5093204;28;20031;-81
2021/04/27 12:52:31;;;;;;;8.25;4.32;;;;;;;;;;5093140;28;20032;-80
2021/04/27 12:55:17;;;;;;;8.32;4.53;;;;;;;;;;5072788;28;20024;-81
2021/04/27 12:57:43;;;;;;;7.82;4.63;;;;;;;;;;5091857;28;20063;-82
2021/04/27 13:00:13;;;;;;;9.13;4.93;;;;;;;;;;5096169;28;20008;-81
2021/04/27 13:02:39;;;;;;;7.05;4.28;;;;;;;;;;5078566;28;20024;-81
2021/04/27 13:05:07;;;;;;;6.43;3.88;;;;;;;;;;5102877;28;20035;-82
2021/04/27 13:07:37;;;;;;;10.30;5.00;;;;;;;;;;5099346;28;20102;-82
2021/04/27 13:10:07;;;;;;;6.97;4.40;;;;;;;;;;5078422;28;20055;-82
2021/04/27 13:12:33;;;;;;;6.95;4.10;;;;;;;;;;5098455;28;20020;-81
2021/04/27 13:15:00;;;;;;;5.43;3.60;;;;;;;;;;5097975;28;20484;-81
2021/04/27 13:17:27;;;;;;;8.63;4.28;;;;;;;;;;5097097;28;20433;-81
2021/04/27 13:19:54;;;;;;;6.80;3.85;;;;;;;;;;5079795;28;20051;-80
2021/04/27 13:22:26;;;;;;;8.73;3.85;;;;;;;;;;5092504;28;20438;-80
2021/04/27 13:24:55;;;;;;;5.47;3.83;;;;;;;;;;5097592;28;20056;-80
2021/04/27 13:27:26;;;;;;;5.15;3.20;;;;;;;;;;5093777;28;20039;-80
2021/04/27 13:30:00;;;;;;;7.07;3.85;;;;;;;;;;5096309;28;20024;-80
2021/04/27 13:32:26;;;;;;;6.07;3.60;;;;;;;;;;5096074;28;20016;-81
2021/04/27 13:34:52;;;;;;;5.03;2.90;;;;;;;;;;5096663;28;20023;-80
2021/04/27 13:37:18;;;;;;;5.22;3.40;;;;;;;;;;5097303;28;20063;-81
2021/04/27 13:39:43;;;;;;;7.25;3.65;;;;;;;;;;5076577;28;20102;-81
2021/04/27 13:42:09;;;;;;;7.28;4.15;;;;;;;;;;5095284;28;20082;-80
2021/04/27 13:44:35;;;;;;;6.85;3.58;;;;;;;;;;5074399;28;20078;-81
2021/04/27 13:47:05;;;;;;;6.90;3.50;;;;;;;;;;5071400;28;20039;-81
2021/04/27 13:49:32;;;;;;;6.60;3.80;;;;;;;;;;5092076;28;20028;-80
2021/04/27 13:51:58;;;;;;;4.95;3.05;;;;;;;;;;5089472;28;20020;-80
2021/04/27 13:54:24;;;;;;;6.57;3.80;;;;;;;;;;5085561;28;20569;-81
2021/04/27 13:56:50;;;;;;;8.48;3.55;;;;;;;;;;5094597;28;20024;-81
2021/04/27 13:59:15;;;;;;;4.82;3.30;;;;;;;;;;5075372;28;20034;-81
2021/04/27 14:01:41;;;;;;;6.18;3.42;;;;;;;;;;5094502;28;20051;-80
2021/04/27 14:04:08;;;;;;;6.18;3.92;;;;;;;;;;5092976;28;20032;-80
2021/04/27 14:06:34;;;;;;;8.95;4.40;;;;;;;;;;5089255;28;20032;-81
2021/04/27 14:09:00;;;;;;;7.57;3.75;;;;;;;;;;5095769;28;20015;-81
2021/04/27 14:11:26;;;;;;;7.70;4.13;;;;;;;;;;5093974;28;20039;-81
2021/04/27 14:13:51;;;;;;;6.32;3.72;;;;;;;;;;5073441;28;20020;-81
2021/04/27 14:16:17;;;;;;;15.27;5.03;;;;;;;;;;5095711;28;20019;-80
2021/04/27 14:18:44;;;;;;;6.35;3.95;;;;;;;;;;5095148;28;20052;-80
2021/04/27 14:21:10;;;;;;;8.75;4.22;;;;;;;;;;5095281;28;20020;-82
2021/04/27 14:23:35;;;;;;;8.02;4.53;;;;;;;;;;5094274;28;20020;-80
2021/04/27 14:26:01;;;;;;;6.85;3.33;;;;;;;;;;5095556;28;20014;-80
2021/04/27 14:28:27;;;;;;;8.45;3.65;;;;;;;;;;5094633;28;20410;-80
2021/04/27 14:30:52;;;;;;;7.53;4.38;;;;;;;;;;5095618;28;20054;-81
2021/04/27 14:33:18;;;;;;;5.40;3.30;;;;;;;;;;5095747;28;20091;-82
2021/04/27 14:35:44;;;;;;;6.93;4.18;;;;;;;;;;5095120;28;20028;-80
2021/04/27 14:38:10;;;;;;;8.02;4.00;;;;;;;;;;5094094;28;20024;-80
2021/04/27 14:40:36;;;;;;;6.63;3.85;;;;;;;;;;5091798;28;20032;-80
2021/04/27 14:43:03;;;;;;;7.97;4.68;;;;;;;;;;5076890;28;20035;-80
2021/04/27 14:45:29;;;;;;;19.05;4.95;;;;;;;;;;5094309;28;20032;-80
2021/04/27 14:47:55;;;;;;;6.22;3.47;;;;;;;;;;5094633;28;20497;-80
2021/04/27 14:50:21;;;;;;;7.22;3.42;;;;;;;;;;5076675;28;20039;-81
2021/04/27 14:52:47;;;;;;;5.63;3.40;;;;;;;;;;5093601;28;20028;-80
2021/04/27 14:55:14;;;;;;;6.72;4.10;;;;;;;;;;5077876;28;21341;-81
2021/04/27 14:57:42;;;;;;;4.53;2.85;;;;;;;;;;5094189;28;20119;-80
2021/04/27 15:00:09;;;;;;;6.13;3.22;;;;;;;;;;5092604;28;20095;-80
2021/04/27 15:02:36;;;;;;;6.45;3.72;;;;;;;;;;5094602;28;20043;-80
2021/04/27 15:05:02;;;;;;;6.10;3.70;;;;;;;;;;5093955;28;20020;-80
2021/04/27 15:07:28;;;;;;;6.90;2.97;;;;;;;;;;5094979;28;20042;-80
2021/04/27 15:09:54;;;;;;;6.10;3.10;;;;;;;;;;5079595;28;20437;-80
2021/04/27 15:12:20;;;;;;;5.30;3.55;;;;;;;;;;5101541;28;20102;-80
2021/04/27 15:14:45;;;;;;;10.25;3.30;;;;;;;;;;5081948;28;20020;-80
2021/04/27 15:17:11;;;;;;;5.93;3.75;;;;;;;;;;5101508;28;20430;-81
2021/04/27 15:19:37;;;;;;;4.93;3.25;;;;;;;;;;5095278;28;20032;-83
2021/04/27 15:22:02;;;;;;;5.75;3.47;;;;;;;;;;5080963;28;20026;-80
2021/04/27 15:24:28;;;;;;;5.22;3.08;;;;;;;;;;5097091;28;20055;-80
2021/04/27 15:26:55;;;;;;;6.25;3.00;;;;;;;;;;5093613;28;20035;-81
2021/04/27 15:29:20;;;;;;;8.27;3.97;;;;;;;;;;5091231;28;20027;-81
2021/04/27 15:31:49;;;;;;;5.05;3.30;;;;;;;;;;5096365;28;20383;-80
2021/04/27 15:34:15;;;;;;;7.00;3.95;;;;;;;;;;5089771;28;20024;-79
2021/04/27 15:36:44;;;;;;;6.55;3.53;;;;;;;;;;5092817;28;20019;-80
2021/04/27 15:39:10;;;;;;;8.82;2.97;;;;;;;;;;5103121;28;20020;-80
2021/04/27 15:41:35;;;;;;;5.60;2.92;;;;;;;;;;5096383;28;20024;-80
2021/04/27 15:44:01;;;;;;;5.40;3.40;;;;;;;;;;5096273;28;20060;-80
2021/04/27 15:46:27;;;;;;;8.18;3.55;;;;;;;;;;5071733;28;20390;-80
2021/04/27 15:48:52;;;;;;;5.68;3.38;;;;;;;;;;5093697;28;20022;-80
2021/04/27 15:51:18;;;;;;;5.82;3.40;;;;;;;;;;5095132;28;20023;-80
2021/04/27 15:56:02;;;;;;;6.55;3.28;;;;;;;;;;5081819;28;20373;-78
2021/04/27 15:58:27;;;;;;;6.72;3.67;;;;;;;;;;5085917;28;20032;-79
2021/04/27 16:00:53;;;;;;;6.53;3.25;;;;;;;;;;5079798;28;20473;-79
2021/04/27 16:03:19;;;;;;;5.85;3.42;;;;;;;;;;5066505;28;20024;-78
2021/04/27 16:05:44;;;;;;;6.32;2.95;;;;;;;;;;5094082;28;20012;-78
2021/04/27 16:08:10;;;;;;;5.45;3.30;;;;;;;;;;5092128;28;20106;-78
2021/04/27 16:10:36;;;;;;;8.55;3.63;;;;;;;;;;5088297;28;20012;-79
2021/04/27 16:13:01;;;;;;;5.13;2.95;;;;;;;;;;5087210;28;20435;-78
2021/04/27 16:15:27;;;;;;;6.82;3.10;;;;;;;;;;5088185;28;20039;-78
2021/04/27 16:17:53;;;;;;;6.28;3.78;;;;;;;;;;5086736;28;20020;-78
2021/04/27 16:20:19;;;;;;;5.75;3.20;;;;;;;;;;5103289;28;20020;-78
2021/04/27 16:22:45;;;;;;;10.57;4.07;;;;;;;;;;5080801;28;20084;-78
2021/04/27 16:25:11;;;;;;;5.90;3.13;;;;;;;;;;5091555;28;20433;-77
2021/04/27 16:27:37;;;;;;;4.68;2.80;;;;;;;;;;5092399;28;20036;-78
2021/04/27 16:30:05;;;;;;;7.38;3.75;;;;;;;;;;5104975;28;20054;-80
2021/04/27 16:32:30;;;;;;;8.30;3.28;;;;;;;;;;5072321;28;20087;-80
2021/04/27 16:34:56;;;;;;;6.68;3.15;;;;;;;;;;5070923;28;20024;-80
2021/04/27 16:37:22;;;;;;;9.02;2.80;;;;;;;;;;5097884;28;20028;-80
2021/04/27 16:39:47;;;;;;;8.40;2.67;;;;;;;;;;5095700;28;20433;-80
2021/04/27 16:42:13;;;;;;;7.78;3.63;;;;;;;;;;5095068;28;20111;-77
2021/04/27 16:44:39;;;;;;;7.80;3.92;;;;;;;;;;5084477;28;20021;-78
2021/04/27 16:47:05;;;;;;;5.63;3.20;;;;;;;;;;5080243;28;20389;-80
2021/04/27 16:49:30;;;;;;;6.30;3.65;;;;;;;;;;5080462;28;20122;-79
2021/04/27 16:51:56;;;;;;;5.75;3.78;;;;;;;;;;5081787;28;20024;-79
2021/04/27 16:54:22;;;;;;;5.75;3.28;;;;;;;;;;5086644;28;20078;-79
2021/04/27 16:56:48;;;;;;;5.95;2.83;;;;;;;;;;5083502;28;20032;-79
2021/04/27 16:59:13;;;;;;;5.43;2.97;;;;;;;;;;5078864;28;20023;-79
2021/04/27 17:01:40;;;;;;;6.25;2.83;;;;;;;;;;5081501;28;20362;-79
2021/04/27 17:04:05;;;;;;;6.05;3.17;;;;;;;;;;5074871;28;20055;-79
2021/04/27 17:06:31;;;;;;;6.85;2.80;;;;;;;;;;5073632;28;20020;-79
2021/04/27 17:08:57;;;;;;;5.97;3.38;;;;;;;;;;5074701;28;20345;-79
2021/04/27 17:11:23;;;;;;;6.63;3.15;;;;;;;;;;5061020;23;20041;-77
2021/04/27 17:13:48;;;;;;;5.50;3.20;;;;;;;;;;5030900;28;20502;-76
2021/04/27 17:16:14;;;;;;;8.43;4.10;;;;;;;;;;5010382;28;20036;-76
2021/04/27 17:18:40;;;;;;;5.28;3.15;;;;;;;;;;5031891;28;20579;-76
2021/04/27 17:21:06;;;;;;;5.50;3.38;;;;;;;;;;5040523;28;20036;-76
2021/04/27 17:23:31;;;;;;;6.88;3.05;;;;;;;;;;5050346;28;20039;-77
2021/04/27 17:26:00;;;;;;;4.38;3.25;;;;;;;;;;5051887;28;20021;-77
2021/04/27 17:28:26;;;;;;;5.85;3.10;;;;;;;;;;5051871;28;20045;-77
2021/04/27 17:30:52;;;;;;;5.65;3.53;;;;;;;;;;5049597;28;20411;-77
2021/04/27 17:33:18;;;;;;;6.40;3.55;;;;;;;;;;5051465;28;20067;-77
2021/04/27 17:35:44;;;;;;;6.03;3.22;;;;;;;;;;5048682;28;20016;-77
2021/04/27 17:38:10;;;;;;;5.18;2.83;;;;;;;;;;5048877;28;20024;-77
2021/04/27 17:40:39;;;;;;;5.50;2.70;;;;;;;;;;5051945;28;20167;-77
2021/04/27 17:43:05;;;;;;;6.68;2.85;;;;;;;;;;5051324;28;20036;-76
2021/04/27 17:45:30;;;;;;;7.72;3.97;;;;;;;;;;5046465;28;20033;-77
2021/04/27 17:47:56;;;;;;;9.52;4.00;;;;;;;;;;5051101;28;20090;-76
2021/04/27 17:50:22;;;;;;;9.25;4.72;;;;;;;;;;5048780;28;20033;-77
2021/04/27 17:52:48;;;;;;;10.63;6.40;;;;;;;;;;5035610;28;20043;-77
2021/04/27 17:55:15;;;;;;;11.95;5.55;;;;;;;;;;5031810;28;20112;-76
2021/04/27 17:57:40;;;;;;;9.65;5.22;;;;;;;;;;5048444;28;20108;-76
2021/04/27 18:00:08;;;;;;;12.73;7.13;;;;;;;;;;5049305;28;20024;-78
2021/04/27 18:02:34;;;;;;;14.93;7.90;;;;;;;;;;5048544;28;20445;-77
2021/04/27 18:05:00;;;;;;;9.27;5.07;;;;;;;;;;5047026;28;20029;-77
2021/04/27 18:07:25;;;;;;;7.90;4.40;;;;;;;;;;5048120;28;20025;-77
2021/04/27 18:09:51;;;;;;;5.18;3.33;;;;;;;;;;5047054;28;20711;-77
2021/04/27 18:12:16;;;;;;;6.20;2.42;;;;;;;;;;5049517;28;20025;-77
2021/04/27 18:14:42;;;;;;;5.22;2.35;;;;;;;;;;5046174;28;20074;-77
2021/04/27 18:17:08;;;;;;;7.82;3.13;;;;;;;;;;5049353;28;20400;-78
2021/04/27 18:19:34;;;;;;;3.22;1.85;;;;;;;;;;5047610;28;20512;-77
2021/04/27 18:22:00;;;;;;;5.13;2.30;;;;;;;;;;5028961;28;20029;-77
2021/04/27 18:24:25;;;;;;;4.07;1.63;;;;;;;;;;5045867;28;20021;-77
2021/04/27 18:26:51;;;;;;;5.82;1.83;;;;;;;;;;5047724;28;20094;-78
2021/04/27 18:29:17;;;;;;;4.13;1.80;;;;;;;;;;5031596;28;20113;-77
2021/04/27 18:31:44;;;;;;;3.65;1.65;;;;;;;;;;5046332;28;20033;-77
2021/04/27 18:34:09;;;;;;;3.35;1.80;;;;;;;;;;5049498;28;20056;-77
2021/04/27 18:36:35;;;;;;;3.13;1.50;;;;;;;;;;5044992;28;20516;-77
2021/04/27 18:39:01;;;;;;;4.35;1.42;;;;;;;;;;5049250;28;20606;-77
2021/04/27 18:41:26;;;;;;;5.82;1.60;;;;;;;;;;5044567;28;20495;-78
2021/04/27 18:43:52;;;;;;;3.45;1.77;;;;;;;;;;5047088;28;20021;-77
2021/04/27 18:46:18;;;;;;;4.10;1.40;;;;;;;;;;5049224;28;20056;-77
2021/04/27 18:48:43;;;;;;;4.32;2.13;;;;;;;;;;5049454;28;20021;-77
2021/04/27 18:51:10;;;;;;;5.15;1.77;;;;;;;;;;5028228;28;20025;-76
2021/04/27 18:55:54;;;;;;;3.70;1.75;;;;;;;;;;5049076;28;20424;-78
2021/04/27 18:58:20;;;;;;;3.47;1.40;;;;;;;;;;5047534;28;20029;-78
2021/04/27 19:00:46;;;;;;;4.57;1.40;;;;;;;;;;5049933;28;20044;-77
2021/04/27 19:03:13;;;;;;;4.45;1.73;;;;;;;;;;5051407;28;20021;-78
2021/04/27 19:05:39;;;;;;;4.90;1.52;;;;;;;;;;5051560;28;20025;-78
2021/04/27 19:08:05;;;;;;;3.70;1.70;;;;;;;;;;5051164;28;20048;-77
2021/04/27 19:10:31;;;;;;;5.15;1.73;;;;;;;;;;5051285;28;20059;-77
2021/04/27 19:12:57;;;;;;;4.40;1.30;;;;;;;;;;5049672;28;20037;-78
2021/04/27 19:15:23;;;;;;;3.72;1.90;;;;;;;;;;5053828;28;20140;-77
2021/04/27 19:17:50;;;;;;;5.22;1.60;;;;;;;;;;5057548;28;20408;-77
2021/04/27 19:20:16;;;;;;;5.28;1.77;;;;;;;;;;5055319;28;20528;-77
2021/04/27 19:22:42;;;;;;;3.65;1.77;;;;;;;;;;5056869;28;20020;-77
2021/04/27 19:25:08;;;;;;;4.50;1.80;;;;;;;;;;5057256;28;20036;-77
2021/04/27 19:27:35;;;;;;;4.20;1.90;;;;;;;;;;5047717;28;20029;-78
2021/04/27 19:30:01;;;;;;;3.00;1.50;;;;;;;;;;5044841;28;20088;-77
2021/04/27 19:32:26;;;;;;;2.88;1.38;;;;;;;;;;5044852;28;20028;-77
2021/04/27 19:34:53;;;;;;;3.53;1.92;;;;;;;;;;5044592;28;20033;-77
2021/04/27 19:37:18;;;;;;;4.60;2.28;;;;;;;;;;5046018;28;20032;-77